Time;durP1;ratioP1;P1;durP2;ratioP2;P2;SDS_P1;SDS_P2;PMS_P1;PMS_P2;Temp;Humidity;BMP_temperature;BMP_pressure;BME280_temperature;BME280_humidity;BME280_pressure;Samples;Min_cycle;Max_cycle;Signal;HPM_P1;HPM_P2
2022/10/06 00:02:16;;;;;;;;;;;15.70;99.90;;;;;;6141364;23;19924;-80
2022/10/06 00:04:43;;;;;;;;;;;15.60;99.90;;;;;;6141216;23;19941;-80
2022/10/06 00:07:10;;;;;;;;;;;15.60;99.90;;;;;;6140301;23;19952;-80
2022/10/06 00:09:37;;;;;;;;;;;15.50;99.90;;;;;;6141844;23;19924;-79
2022/10/06 00:12:04;;;;;;;;;;;15.40;99.90;;;;;;6140629;23;19908;-80
2022/10/06 00:14:30;;;;;;;;;;;15.40;99.90;;;;;;6141693;23;19948;-79
2022/10/06 00:16:57;;;;;;;;;;;15.40;99.90;;;;;;6138328;23;19932;-80
2022/10/06 00:19:24;;;;;;;;;;;15.30;99.90;;;;;;6140826;23;19918;-80
2022/10/06 00:21:51;;;;;;;;;;;15.30;99.90;;;;;;6142221;23;19917;-80
2022/10/06 00:24:17;;;;;;;;;;;15.30;99.90;;;;;;6140687;23;19937;-80
2022/10/06 00:26:46;;;;;;;;;;;15.20;99.70;;;;;;6116306;23;19957;-80
2022/10/06 00:29:13;;;;;;;;;;;15.20;99.70;;;;;;6139963;23;19925;-80
2022/10/06 00:31:40;;;;;;;;;;;15.10;99.90;;;;;;6143092;23;19917;-81
2022/10/06 00:34:07;;;;;;;;;;;15.10;99.90;;;;;;6138797;23;19940;-79
2022/10/06 00:36:34;;;;;;;;;;;15.00;99.90;;;;;;6139876;23;20012;-79
2022/10/06 00:39:00;;;;;;;;;;;15.00;99.90;;;;;;6138875;23;19965;-80
2022/10/06 00:41:27;;;;;;;;;;;14.90;99.90;;;;;;6140739;23;20358;-79
2022/10/06 00:43:55;;;;;;;;;;;14.90;99.90;;;;;;6138318;23;19924;-80
2022/10/06 00:46:32;;;;;;;;;;;14.80;99.90;;;;;;6140997;23;19917;-80
2022/10/06 00:49:22;;;;;;;;;;;14.80;99.70;;;;;;6140251;23;19962;-81
2022/10/06 00:52:03;;;;;;;;;;;14.80;99.70;;;;;;6142351;23;19952;-80
2022/10/06 00:54:30;;;;;;;;;;;14.70;99.80;;;;;;6138208;23;19971;-79
2022/10/06 00:56:57;;;;;;;;;;;14.70;99.70;;;;;;6134063;23;19917;-79
2022/10/06 00:59:24;;;;;;;;;;;14.70;99.60;;;;;;6136358;23;19921;-79
2022/10/06 01:01:56;;;;;;;;;;;14.60;99.90;;;;;;6125290;23;19937;-84
2022/10/06 01:04:23;;;;;;;;;;;14.50;99.90;;;;;;6120156;23;19917;-85
2022/10/06 01:06:54;;;;;;;;;;;14.50;99.90;;;;;;6121424;23;19992;-85
2022/10/06 01:09:23;;;;;;;;;;;14.40;99.90;;;;;;6120044;23;19972;-85
2022/10/06 01:11:52;;;;;;;;;;;14.40;99.90;;;;;;6121215;23;19917;-85
2022/10/06 01:14:19;;;;;;;;;;;14.30;99.90;;;;;;6120778;23;20250;-85
2022/10/06 01:16:48;;;;;;;;;;;14.30;99.70;;;;;;6120845;23;19924;-84
2022/10/06 01:19:19;;;;;;;;;;;14.30;99.90;;;;;;6120229;23;19920;-84
2022/10/06 01:21:47;;;;;;;;;;;14.20;99.90;;;;;;6120748;23;19932;-84
2022/10/06 01:24:15;;;;;;;;;;;13.90;99.90;;;;;;6120549;23;19921;-85
2022/10/06 01:26:44;;;;;;;;;;;13.90;99.90;;;;;;6120856;23;19921;-85
2022/10/06 01:29:11;;;;;;;;;;;13.90;99.90;;;;;;6097451;23;19948;-85
2022/10/06 01:31:38;;;;;;;;;;;13.90;99.90;;;;;;6121274;23;19924;-85
2022/10/06 01:34:05;;;;;;;;;;;13.80;99.90;;;;;;6121013;23;20249;-84
2022/10/06 01:36:32;;;;;;;;;;;13.80;99.90;;;;;;6120437;23;19917;-85
2022/10/06 01:38:58;;;;;;;;;;;13.80;99.90;;;;;;6120733;23;19925;-85
2022/10/06 01:41:26;;;;;;;;;;;13.80;99.90;;;;;;6120103;23;19983;-85
2022/10/06 01:43:53;;;;;;;;;;;13.70;99.90;;;;;;6120963;23;20345;-85
2022/10/06 01:46:20;;;;;;;;;;;13.80;99.90;;;;;;6120057;23;19943;-85
2022/10/06 01:48:47;;;;;;;;;;;13.70;99.90;;;;;;6120735;23;19917;-85
2022/10/06 01:51:15;;;;;;;;;;;13.70;99.90;;;;;;6096838;23;19917;-85
2022/10/06 01:53:41;;;;;;;;;;;13.70;99.90;;;;;;6120782;23;20254;-84
2022/10/06 01:56:08;;;;;;;;;;;13.60;99.90;;;;;;6119859;23;19996;-82
2022/10/06 01:58:35;;;;;;;;;;;13.50;99.90;;;;;;6120769;23;20246;-86
2022/10/06 02:01:08;;;;;;;;;;;13.50;99.90;;;;;;6120801;23;20053;-85
2022/10/06 02:03:36;;;;;;;;;;;13.50;99.90;;;;;;6120168;23;20250;-85
2022/10/06 02:06:03;;;;;;;;;;;13.50;99.90;;;;;;6120513;23;19988;-80
2022/10/06 02:08:30;;;;;;;;;;;13.50;99.90;;;;;;6119471;23;20378;-80
2022/10/06 02:10:57;;;;;;;;;;;13.40;99.90;;;;;;6120441;23;19961;-80
2022/10/06 02:13:24;;;;;;;;;;;13.40;99.90;;;;;;6119644;23;19917;-80
2022/10/06 02:15:54;;;;;;;;;;;13.40;99.90;;;;;;6120357;23;19924;-80
2022/10/06 02:18:21;;;;;;;;;;;13.40;99.90;;;;;;6119182;23;19917;-80
2022/10/06 02:20:47;;;;;;;;;;;13.30;99.90;;;;;;6120289;23;19917;-80
2022/10/06 02:23:14;;;;;;;;;;;13.30;99.90;;;;;;6095030;23;19927;-80
2022/10/06 02:25:42;;;;;;;;;;;13.30;99.90;;;;;;6119788;23;19924;-80
2022/10/06 02:28:09;;;;;;;;;;;13.30;99.90;;;;;;6120397;23;20326;-80
2022/10/06 02:30:36;;;;;;;;;;;13.20;99.90;;;;;;6096348;23;19952;-80
2022/10/06 02:33:02;;;;;;;;;;;13.00;99.90;;;;;;6120829;23;19923;-80
2022/10/06 02:35:29;;;;;;;;;;;12.90;99.90;;;;;;6095274;23;20250;-80
2022/10/06 02:37:56;;;;;;;;;;;12.90;99.90;;;;;;6120326;23;20315;-80
2022/10/06 02:40:23;;;;;;;;;;;12.90;99.90;;;;;;6119850;23;19941;-80
2022/10/06 02:42:50;;;;;;;;;;;12.80;99.90;;;;;;6120364;23;19937;-80
2022/10/06 02:45:16;;;;;;;;;;;12.80;99.90;;;;;;6119667;23;19917;-80
2022/10/06 02:47:43;;;;;;;;;;;12.80;99.90;;;;;;6120178;23;20011;-80
2022/10/06 02:50:10;;;;;;;;;;;12.80;99.90;;;;;;6120532;23;19921;-80
2022/10/06 02:52:39;;;;;;;;;;;12.80;99.90;;;;;;6095384;23;19917;-80
2022/10/06 02:55:07;;;;;;;;;;;12.80;99.90;;;;;;6120589;23;20250;-80
2022/10/06 02:57:34;;;;;;;;;;;12.80;99.90;;;;;;6119156;23;19992;-80
2022/10/06 03:00:00;;;;;;;;;;;12.80;99.90;;;;;;6120201;23;20377;-80
2022/10/06 03:02:30;;;;;;;;;;;12.70;99.90;;;;;;6119847;23;19917;-80
2022/10/06 03:04:57;;;;;;;;;;;12.70;99.90;;;;;;6120182;23;19917;-80
2022/10/06 03:07:23;;;;;;;;;;;12.60;99.90;;;;;;6118887;23;19921;-80
2022/10/06 03:09:50;;;;;;;;;;;12.50;99.90;;;;;;6120257;23;19967;-80
2022/10/06 03:12:17;;;;;;;;;;;12.50;99.90;;;;;;6119224;23;19948;-80
2022/10/06 03:14:43;;;;;;;;;;;12.50;99.90;;;;;;6119968;23;19923;-80
2022/10/06 03:17:10;;;;;;;;;;;12.30;99.90;;;;;;6119947;23;19917;-80
2022/10/06 03:19:37;;;;;;;;;;;12.30;99.90;;;;;;6119150;23;19923;-80
2022/10/06 03:22:04;;;;;;;;;;;12.30;99.90;;;;;;6096952;23;19979;-80
2022/10/06 03:24:31;;;;;;;;;;;12.30;99.90;;;;;;6119261;23;20235;-80
2022/10/06 03:26:58;;;;;;;;;;;12.30;99.90;;;;;;6119841;23;20374;-80
2022/10/06 03:29:25;;;;;;;;;;;12.30;99.90;;;;;;6119672;23;20000;-80
2022/10/06 03:31:51;;;;;;;;;;;12.30;99.90;;;;;;6119784;23;19917;-80
2022/10/06 03:34:18;;;;;;;;;;;12.30;99.90;;;;;;6119192;23;19917;-80
2022/10/06 03:36:45;;;;;;;;;;;12.30;99.90;;;;;;6119772;23;19917;-80
2022/10/06 03:39:11;;;;;;;;;;;12.20;99.90;;;;;;6120108;23;20297;-80
2022/10/06 03:41:38;;;;;;;;;;;12.30;99.90;;;;;;6119222;23;19917;-80
2022/10/06 03:44:05;;;;;;;;;;;12.30;99.90;;;;;;6120112;23;19917;-80
2022/10/06 03:46:34;;;;;;;;;;;12.30;99.90;;;;;;6119250;23;20266;-80
2022/10/06 03:49:00;;;;;;;;;;;12.30;99.90;;;;;;6119851;23;19918;-80
2022/10/06 03:51:34;;;;;;;;;;;12.30;99.90;;;;;;6119437;23;19996;-80
2022/10/06 03:54:01;;;;;;;;;;;12.30;99.90;;;;;;6120139;23;19987;-80
2022/10/06 03:56:29;;;;;;;;;;;12.30;99.90;;;;;;6096361;23;19992;-80
2022/10/06 03:58:58;;;;;;;;;;;12.10;99.90;;;;;;6119875;23;19917;-80
2022/10/06 04:01:29;;;;;;;;;;;12.00;99.90;;;;;;6119437;23;19976;-80
2022/10/06 04:03:57;;;;;;;;;;;11.90;99.90;;;;;;6119453;23;19947;-80
2022/10/06 04:06:24;;;;;;;;;;;11.80;99.90;;;;;;6119387;23;20250;-81
2022/10/06 04:08:51;;;;;;;;;;;11.90;99.90;;;;;;6120327;23;19996;-80
2022/10/06 04:11:20;;;;;;;;;;;11.90;99.90;;;;;;6119781;23;19917;-80
2022/10/06 04:13:47;;;;;;;;;;;11.90;99.90;;;;;;6120077;23;19917;-80
2022/10/06 04:16:25;;;;;;;;;;;11.90;99.90;;;;;;6119915;23;19988;-80
2022/10/06 04:18:53;;;;;;;;;;;11.90;99.90;;;;;;6120520;23;19940;-80
2022/10/06 04:21:20;;;;;;;;;;;11.90;99.90;;;;;;6121762;23;19991;-80
2022/10/06 04:23:47;;;;;;;;;;;11.80;99.90;;;;;;6096530;23;19925;-80
2022/10/06 04:26:18;;;;;;;;;;;11.80;99.90;;;;;;6121688;23;19917;-80
2022/10/06 04:28:45;;;;;;;;;;;11.80;99.90;;;;;;6120796;23;19992;-80
2022/10/06 04:31:14;;;;;;;;;;;11.70;99.90;;;;;;6097529;23;19972;-80
2022/10/06 04:33:41;;;;;;;;;;;11.70;99.90;;;;;;6121337;23;20232;-80
2022/10/06 04:36:09;;;;;;;;;;;11.60;99.90;;;;;;6121626;23;19988;-80
2022/10/06 04:38:36;;;;;;;;;;;11.70;99.90;;;;;;6098558;23;19924;-80
2022/10/06 04:41:07;;;;;;;;;;;11.70;99.90;;;;;;6122676;23;19927;-80
2022/10/06 04:43:34;;;;;;;;;;;11.70;99.90;;;;;;6122183;23;19956;-80
2022/10/06 04:46:01;;;;;;;;;;;11.70;99.90;;;;;;6122775;23;19996;-80
2022/10/06 04:48:48;;;;;;;;;;;11.70;99.90;;;;;;6117284;23;19925;-80
2022/10/06 04:51:16;;;;;;;;;;;11.80;99.90;;;;;;6121808;23;20326;-80
2022/10/06 04:53:43;;;;;;;;;;;11.80;99.90;;;;;;6121038;23;19970;-80
2022/10/06 04:56:11;;;;;;;;;;;11.80;99.90;;;;;;6121179;23;19927;-80
2022/10/06 04:58:38;;;;;;;;;;;11.70;99.90;;;;;;6120646;23;19944;-80
2022/10/06 05:01:28;;;;;;;;;;;11.60;99.90;;;;;;6121329;23;19988;-80
2022/10/06 05:03:56;;;;;;;;;;;11.60;99.90;;;;;;6121650;23;20242;-80
2022/10/06 05:06:24;;;;;;;;;;;11.50;99.90;;;;;;6121450;23;19928;-78
2022/10/06 05:08:52;;;;;;;;;;;11.30;99.90;;;;;;6122136;23;19932;-80
2022/10/06 05:11:19;;;;;;;;;;;11.30;99.90;;;;;;6121365;23;19996;-80
2022/10/06 05:13:55;;;;;;;;;;;11.30;99.90;;;;;;6119834;23;19932;-80
2022/10/06 05:16:23;;;;;;;;;;;11.30;99.90;;;;;;6121267;23;20254;-79
2022/10/06 05:18:50;;;;;;;;;;;11.20;99.90;;;;;;6120544;23;19946;-80
2022/10/06 05:21:24;;;;;;;;;;;11.20;99.90;;;;;;6121010;23;19988;-80
2022/10/06 05:23:51;;;;;;;;;;;11.20;99.90;;;;;;6121059;23;20994;-80
2022/10/06 05:26:19;;;;;;;;;;;11.30;99.90;;;;;;6097416;23;19957;-80
2022/10/06 05:28:46;;;;;;;;;;;11.30;99.90;;;;;;6119987;23;20369;-80
2022/10/06 05:31:16;;;;;;;;;;;11.30;99.90;;;;;;6121566;23;20250;-80
2022/10/06 05:33:43;;;;;;;;;;;11.40;99.90;;;;;;6120923;23;20307;-81
2022/10/06 05:36:14;;;;;;;;;;;11.30;99.90;;;;;;6121183;23;19927;-80
2022/10/06 05:38:42;;;;;;;;;;;11.40;99.90;;;;;;6120153;23;19924;-80
2022/10/06 05:41:10;;;;;;;;;;;11.40;99.90;;;;;;6122083;23;20008;-80
2022/10/06 05:43:37;;;;;;;;;;;11.30;99.90;;;;;;6120718;23;20005;-80
2022/10/06 05:46:06;;;;;;;;;;;11.30;99.90;;;;;;6129797;23;20292;-79
2022/10/06 05:48:32;;;;;;;;;;;11.30;99.90;;;;;;6129714;23;19921;-80
2022/10/06 05:51:00;;;;;;;;;;;11.30;99.90;;;;;;6113521;23;19917;-80
2022/10/06 05:53:27;;;;;;;;;;;11.30;99.90;;;;;;6134369;23;19956;-80
2022/10/06 05:56:09;;;;;;;;;;;11.30;99.90;;;;;;6133750;23;19988;-81
2022/10/06 05:58:37;;;;;;;;;;;11.20;99.90;;;;;;6133446;23;19944;-80
2022/10/06 06:01:04;;;;;;;;;;;11.20;99.90;;;;;;6135886;23;20012;-80
2022/10/06 06:03:31;;;;;;;;;;;11.20;99.90;;;;;;6136854;23;19917;-80
2022/10/06 06:06:16;;;;;;;;;;;11.30;99.90;;;;;;6131766;23;19953;-80
2022/10/06 06:08:43;;;;;;;;;;;11.20;99.90;;;;;;6136464;23;19917;-80
2022/10/06 06:11:10;;;;;;;;;;;11.20;99.90;;;;;;6110257;23;20250;-80
2022/10/06 06:13:37;;;;;;;;;;;11.20;99.90;;;;;;6132291;23;19992;-80
2022/10/06 06:16:04;;;;;;;;;;;11.20;99.90;;;;;;6132864;23;19917;-80
2022/10/06 06:18:35;;;;;;;;;;;11.10;99.90;;;;;;6111685;23;19961;-80
2022/10/06 06:21:03;;;;;;;;;;;11.20;99.90;;;;;;6135421;23;19968;-80
2022/10/06 06:23:35;;;;;;;;;;;11.10;99.90;;;;;;6115089;23;19933;-80
2022/10/06 06:26:03;;;;;;;;;;;11.20;99.90;;;;;;6137939;23;19940;-80
2022/10/06 06:28:29;;;;;;;;;;;11.20;99.90;;;;;;6138781;23;19939;-80
2022/10/06 06:31:01;;;;;;;;;;;11.30;99.90;;;;;;6137050;23;19913;-80
2022/10/06 06:33:29;;;;;;;;;;;11.40;99.90;;;;;;6140867;23;19973;-80
2022/10/06 06:35:56;;;;;;;;;;;11.40;99.90;;;;;;6137867;23;20318;-80
2022/10/06 06:38:23;;;;;;;;;;;11.50;99.90;;;;;;6116913;23;19944;-80
2022/10/06 06:40:50;;;;;;;;;;;11.60;99.90;;;;;;6140077;23;19917;-80
2022/10/06 06:43:17;;;;;;;;;;;11.70;99.90;;;;;;6141243;23;19960;-80
2022/10/06 06:45:43;;;;;;;;;;;11.80;99.90;;;;;;6141822;23;20313;-80
2022/10/06 06:48:14;;;;;;;;;;;11.80;99.90;;;;;;6142270;23;19928;-80
2022/10/06 06:50:42;;;;;;;;;;;11.90;99.90;;;;;;6142320;23;20360;-80
2022/10/06 06:53:08;;;;;;;;;;;12.00;99.90;;;;;;6141372;23;19921;-81
2022/10/06 06:55:50;;;;;;;;;;;12.10;99.90;;;;;;6142472;23;19917;-80
2022/10/06 06:58:18;;;;;;;;;;;12.20;99.90;;;;;;6141940;23;19996;-80
2022/10/06 07:00:46;;;;;;;;;;;12.40;99.90;;;;;;6143965;23;19901;-80
2022/10/06 07:03:15;;;;;;;;;;;12.50;99.90;;;;;;6142461;23;19992;-80
2022/10/06 07:06:07;;;;;;;;;;;12.60;99.90;;;;;;6137545;23;19921;-80
2022/10/06 07:08:35;;;;;;;;;;;12.70;99.90;;;;;;6141477;23;19901;-80
2022/10/06 07:11:12;;;;;;;;;;;12.80;99.90;;;;;;6141502;23;19902;-80
